createdAt,value
2023-01-15T00:00:45.231Z,7.40
2023-01-15T00:03:33.135Z,7.20
2023-01-15T00:06:21.372Z,7.30
2023-01-15T00:09:09.934Z,7.00
2023-01-15T00:11:58.109Z,7.30
2023-01-15T00:14:50.102Z,7.60
2023-01-15T00:17:40.057Z,7.40
2023-01-15T00:20:29.356Z,7.30
2023-01-15T00:23:32.149Z,7.40
2023-01-15T00:26:40.503Z,5.40
2023-01-15T00:29:31.248Z,7.30
2023-01-15T00:32:29.798Z,7.40
2023-01-15T00:35:20.045Z,8.00
2023-01-15T00:38:18.193Z,7.30
2023-01-15T00:41:25.883Z,7.30
2023-01-15T00:44:28.500Z,7.30
2023-01-15T00:47:17.138Z,7.60
2023-01-15T00:50:33.162Z,7.40
2023-01-15T00:53:36.833Z,7.30
2023-01-15T00:56:30.785Z,7.20
2023-01-15T00:59:19.381Z,7.30
2023-01-15T01:02:11.853Z,7.40
2023-01-15T01:05:15.485Z,7.50
2023-01-15T01:08:03.287Z,7.70
2023-01-15T01:11:04.955Z,7.40
2023-01-15T01:13:56.542Z,7.60
2023-01-15T01:16:47.018Z,8.10
2023-01-15T01:19:37.387Z,8.50
2023-01-15T01:22:29.456Z,7.60
2023-01-15T01:25:16.874Z,7.50
2023-01-15T01:28:06.780Z,7.50
2023-01-15T01:30:55.746Z,7.80
2023-01-15T01:33:55.719Z,7.70
2023-01-15T01:36:44.321Z,7.70
2023-01-15T01:39:35.643Z,7.60
2023-01-15T01:42:26.316Z,7.60
2023-01-15T01:45:26.591Z,8.80
2023-01-15T01:48:19.953Z,7.80
2023-01-15T01:51:07.557Z,9.70
2023-01-15T01:53:55.582Z,7.90
2023-01-15T01:56:52.425Z,8.10
2023-01-15T01:59:41.452Z,7.60
2023-01-15T02:02:34.985Z,7.50
2023-01-15T02:05:29.432Z,7.30
2023-01-15T02:08:21.191Z,7.40
2023-01-15T02:11:19.169Z,10.00
2023-01-15T02:14:18.069Z,7.40
2023-01-15T02:17:11.550Z,6.00
2023-01-15T02:24:56.752Z,7.30
2023-01-15T02:27:53.538Z,7.10
2023-01-15T02:30:53.892Z,7.50
2023-01-15T02:33:47.552Z,7.30
2023-01-15T02:36:39.077Z,7.00
2023-01-15T02:39:31.168Z,6.10
2023-01-15T02:42:22.357Z,7.30
2023-01-15T02:45:20.748Z,7.00
2023-01-15T02:48:12.718Z,7.20
2023-01-15T02:51:03.851Z,7.10
2023-01-15T02:53:58.209Z,7.30
2023-01-15T02:56:50.670Z,6.90
2023-01-15T02:59:44.234Z,8.30
2023-01-15T03:02:37.924Z,6.90
2023-01-15T03:05:29.970Z,6.70
2023-01-15T03:08:20.755Z,8.00
2023-01-15T03:11:13.912Z,6.90
2023-01-15T03:14:11.386Z,7.10
2023-01-15T03:17:09.552Z,6.80
2023-01-15T03:20:05.391Z,7.20
2023-01-15T03:23:04.478Z,6.80
2023-01-15T03:26:02.832Z,6.80
2023-01-15T03:28:52.738Z,6.90
2023-01-15T03:31:46.497Z,6.70
2023-01-15T03:34:39.254Z,6.80
2023-01-15T03:37:35.835Z,6.80
2023-01-15T03:40:35.097Z,7.50
2023-01-15T03:43:42.227Z,6.80
2023-01-15T03:46:36.678Z,6.60
2023-01-15T03:49:33.626Z,6.70
2023-01-15T03:52:32.622Z,8.50
2023-01-15T03:55:27.971Z,6.70
2023-01-15T03:58:50.349Z,6.80
2023-01-15T04:02:02.292Z,7.70
2023-01-15T04:05:10.001Z,6.70
2023-01-15T04:08:02.634Z,6.70
2023-01-15T04:10:56.961Z,6.60
2023-01-15T04:13:54.553Z,6.80
2023-01-15T04:17:01.122Z,7.10
2023-01-15T04:19:49.759Z,6.80
2023-01-15T04:22:37.741Z,7.10
2023-01-15T04:25:26.477Z,6.80
2023-01-15T04:28:15.361Z,7.20
2023-01-15T04:31:08.603Z,8.00
2023-01-15T04:33:58.067Z,6.60
2023-01-15T04:36:48.286Z,6.50
2023-01-15T04:39:35.813Z,6.70
2023-01-15T04:42:41.758Z,8.20
2023-01-15T04:45:33.568Z,6.60
2023-01-15T04:48:21.193Z,6.60
2023-01-15T04:51:09.504Z,6.70
2023-01-15T04:53:58.249Z,6.60
2023-01-15T04:56:50.501Z,6.70
2023-01-15T04:59:42.389Z,4.90
2023-01-15T05:02:32.343Z,6.80
2023-01-15T05:05:23.443Z,6.60
2023-01-15T05:08:11.751Z,6.80
2023-01-15T05:11:05.965Z,6.90
2023-01-15T05:13:53.594Z,6.70
2023-01-15T05:16:43.909Z,6.60
2023-01-15T05:19:35.697Z,7.00
2023-01-15T05:22:29.091Z,6.50
2023-01-15T05:25:19.439Z,6.50
2023-01-15T05:28:07.401Z,6.50
2023-01-15T05:30:55.655Z,6.50
2023-01-15T05:33:52.267Z,6.50
2023-01-15T05:36:41.324Z,8.20
2023-01-15T05:39:38.314Z,6.20
2023-01-15T05:42:30.424Z,6.30
2023-01-15T05:45:18.709Z,6.30
2023-01-15T05:48:07.945Z,8.70
2023-01-15T05:50:58.038Z,6.60
2023-01-15T05:53:47.635Z,4.40
2023-01-15T05:56:37.703Z,6.10
2023-01-15T05:59:28.300Z,6.00
2023-01-15T06:02:22.916Z,6.00
2023-01-15T06:05:14.712Z,6.20
2023-01-15T06:08:02.684Z,6.20
2023-01-15T06:10:57.452Z,6.20
2023-01-15T06:13:47.120Z,6.60
2023-01-15T06:16:43.773Z,6.10
2023-01-15T06:19:38.055Z,6.00
2023-01-15T06:22:25.785Z,5.50
2023-01-15T06:25:14.787Z,5.30
2023-01-15T06:28:03.865Z,4.80
2023-01-15T06:30:51.441Z,4.80
2023-01-15T06:33:39.609Z,4.70
2023-01-15T06:36:28.320Z,4.60
2023-01-15T06:39:18.189Z,4.60
2023-01-15T06:42:23.562Z,4.60
2023-01-15T06:45:35.151Z,4.50
2023-01-15T06:48:23.482Z,2.70
2023-01-15T06:51:15.161Z,4.40
2023-01-15T06:54:02.995Z,3.60
2023-01-15T06:56:51.255Z,4.20
2023-01-15T06:59:38.903Z,4.20
2023-01-15T07:02:35.676Z,4.10
2023-01-15T07:05:23.469Z,4.20
2023-01-15T07:08:12.218Z,4.40
2023-01-15T07:11:03.324Z,4.10
2023-01-15T07:13:50.840Z,4.00
2023-01-15T07:16:39.326Z,6.40
2023-01-15T07:19:29.132Z,5.00
2023-01-15T07:22:17.522Z,4.70
2023-01-15T07:25:05.948Z,4.20
2023-01-15T07:27:54.349Z,4.20
2023-01-15T07:30:45.782Z,4.20
2023-01-15T07:33:33.582Z,4.20
2023-01-15T07:36:23.293Z,4.10
2023-01-15T07:39:12.365Z,4.30
2023-01-15T07:42:17.540Z,4.30
2023-01-15T07:45:23.971Z,4.20
2023-01-15T07:48:29.442Z,2.60
2023-01-15T07:51:22.377Z,4.20
2023-01-15T07:54:16.359Z,4.30
2023-01-15T07:57:04.491Z,4.30
2023-01-15T07:59:52.737Z,4.20
2023-01-15T08:02:40.597Z,2.00
2023-01-15T08:05:29.294Z,4.50
2023-01-15T08:08:17.162Z,4.50
2023-01-15T08:11:24.890Z,4.30
2023-01-15T08:14:32.552Z,4.30
2023-01-15T08:17:20.445Z,4.40
2023-01-15T08:20:09.694Z,4.50
2023-01-15T08:22:57.894Z,4.30
2023-01-15T08:25:48.651Z,4.50
2023-01-15T08:28:37.534Z,4.50
2023-01-15T08:31:25.703Z,4.60
2023-01-15T08:34:15.906Z,6.00
2023-01-15T08:37:04.118Z,4.70
2023-01-15T08:39:53.339Z,4.50
2023-01-15T08:42:43.257Z,5.20
2023-01-15T08:45:35.803Z,5.10
2023-01-15T08:48:24.061Z,4.90
2023-01-15T08:51:13.908Z,4.80
2023-01-15T08:54:01.655Z,4.70
2023-01-15T08:56:53.601Z,5.10
2023-01-15T08:59:46.078Z,5.50
2023-01-15T09:02:35.740Z,5.00
2023-01-15T09:05:23.512Z,5.10
2023-01-15T09:08:11.199Z,5.00
2023-01-15T09:11:02.389Z,5.00
2023-01-15T09:13:51.769Z,5.50
2023-01-15T09:16:42.161Z,5.00
2023-01-15T09:19:31.912Z,5.30
2023-01-15T09:22:21.324Z,5.20
2023-01-15T09:25:09.551Z,5.30
2023-01-15T09:27:58.462Z,7.70
2023-01-15T09:30:49.542Z,5.40
2023-01-15T09:33:38.995Z,2.70
2023-01-15T09:36:29.202Z,6.60
2023-01-15T09:39:19.689Z,5.30
2023-01-15T09:42:16.212Z,5.40
2023-01-15T09:45:15.553Z,6.40
2023-01-15T09:48:18.369Z,5.70
2023-01-15T09:51:16.481Z,5.60
2023-01-15T09:54:13.024Z,5.80
2023-01-15T09:57:01.788Z,5.90
2023-01-15T09:59:51.369Z,7.30
2023-01-15T10:02:51.061Z,6.00
2023-01-15T10:05:43.893Z,6.20
2023-01-15T10:08:38.720Z,5.90
2023-01-15T10:11:53.110Z,6.00
2023-01-15T10:14:46.493Z,5.90
2023-01-15T10:17:41.619Z,6.00
2023-01-15T10:20:38.557Z,5.90
2023-01-15T10:23:37.527Z,6.00
2023-01-15T10:26:32.018Z,5.80
2023-01-15T10:29:28.321Z,5.70
2023-01-15T10:32:23.486Z,5.80
2023-01-15T10:35:26.126Z,6.50
2023-01-15T10:38:17.657Z,7.60
2023-01-15T10:41:10.178Z,5.80
2023-01-15T10:44:01.649Z,5.70
2023-01-15T10:46:57.667Z,5.60
2023-01-15T10:49:49.291Z,5.50
2023-01-15T10:52:39.405Z,5.40
2023-01-15T10:55:30.765Z,5.40
2023-01-15T10:58:27.385Z,5.90
2023-01-15T11:01:19.873Z,5.60
2023-01-15T11:04:10.908Z,5.70
2023-01-15T11:07:03.554Z,5.70
2023-01-15T11:09:50.790Z,6.10
2023-01-15T11:12:56.366Z,5.90
2023-01-15T11:16:03.972Z,8.40
2023-01-15T11:19:09.092Z,6.50
2023-01-15T11:22:00.759Z,6.50
2023-01-15T11:24:49.694Z,6.50
2023-01-15T11:27:38.678Z,6.10
2023-01-15T11:30:28.840Z,6.70
2023-01-15T11:33:23.754Z,7.80
2023-01-15T11:36:21.861Z,6.80
2023-01-15T11:39:23.300Z,7.00
2023-01-15T11:42:34.688Z,6.80
2023-01-15T11:45:40.035Z,6.80
2023-01-15T11:48:54.033Z,6.80
2023-01-15T11:51:43.533Z,6.80
2023-01-15T11:54:33.894Z,6.90
2023-01-15T11:57:26.656Z,6.80
2023-01-15T12:00:23.142Z,8.30
2023-01-15T12:03:16.891Z,7.00
2023-01-15T12:06:08.023Z,6.70
2023-01-15T12:08:58.919Z,7.10
2023-01-15T12:11:57.249Z,7.30
2023-01-15T12:14:55.163Z,7.40
2023-01-15T12:18:08.713Z,7.30
2023-01-15T12:21:03.112Z,5.90
2023-01-15T12:23:56.382Z,7.30
2023-01-15T12:26:51.599Z,7.10
2023-01-15T12:29:45.987Z,9.00
2023-01-15T12:32:38.615Z,7.10
2023-01-15T12:35:30.883Z,7.30
2023-01-15T12:38:27.475Z,7.20
2023-01-15T12:41:17.583Z,7.20
2023-01-15T12:44:22.760Z,7.10
2023-01-15T12:47:18.396Z,7.00
2023-01-15T12:50:10.630Z,6.90
2023-01-15T12:53:00.973Z,7.00
2023-01-15T12:55:52.082Z,6.90
2023-01-15T12:58:41.851Z,6.80
2023-01-15T13:01:33.287Z,7.00
2023-01-15T13:04:25.607Z,7.00
2023-01-15T13:07:17.376Z,7.20
2023-01-15T13:10:09.735Z,7.30
2023-01-15T13:13:00.947Z,7.40
2023-01-15T13:15:59.740Z,7.60
2023-01-15T13:18:53.674Z,9.20
2023-01-15T13:21:45.617Z,5.30
2023-01-15T13:24:42.597Z,9.60
2023-01-15T13:27:41.395Z,7.20
2023-01-15T13:30:35.153Z,7.30
2023-01-15T13:33:29.496Z,8.70
2023-01-15T13:36:19.586Z,7.30
2023-01-15T13:39:12.801Z,7.30
2023-01-15T13:42:18.718Z,7.10
2023-01-15T13:45:26.795Z,7.10
2023-01-15T13:48:16.709Z,7.10
2023-01-15T13:51:06.204Z,7.10
2023-01-15T13:53:53.679Z,7.10
2023-01-15T13:56:44.818Z,7.10
2023-01-15T13:59:39.791Z,7.10
2023-01-15T14:02:31.985Z,7.40
2023-01-15T14:05:26.977Z,7.00
2023-01-15T14:08:17.391Z,7.00
2023-01-15T14:11:05.270Z,6.80
2023-01-15T14:14:03.841Z,6.70
2023-01-15T14:16:56.757Z,6.90
2023-01-15T14:19:56.124Z,6.70
2023-01-15T14:22:54.439Z,6.70
2023-01-15T14:25:47.363Z,6.60
2023-01-15T14:28:41.438Z,7.60
2023-01-15T14:31:39.110Z,6.20
2023-01-15T14:34:28.954Z,6.10
2023-01-15T14:37:27.218Z,6.10
2023-01-15T14:40:19.973Z,6.10
2023-01-15T14:43:10.871Z,6.10
2023-01-15T14:46:14.978Z,6.10
2023-01-15T14:49:05.450Z,6.20
2023-01-15T14:51:53.372Z,6.20
2023-01-15T14:54:44.587Z,6.10
2023-01-15T14:57:34.714Z,5.90
2023-01-15T15:00:25.212Z,5.90
2023-01-15T15:03:15.626Z,6.00
2023-01-15T15:06:06.552Z,7.30
2023-01-15T15:08:59.667Z,6.10
2023-01-15T15:12:05.706Z,6.30
2023-01-15T15:15:06.914Z,6.20
2023-01-15T15:17:59.911Z,8.10
2023-01-15T15:20:51.524Z,6.20
2023-01-15T15:23:45.256Z,6.10
2023-01-15T15:26:34.039Z,6.00
2023-01-15T15:29:22.584Z,5.90
2023-01-15T15:32:13.710Z,5.90
2023-01-15T15:35:01.616Z,5.90
2023-01-15T15:37:51.749Z,6.30
2023-01-15T15:40:46.383Z,6.00
2023-01-15T15:43:55.031Z,6.00
2023-01-15T15:47:07.464Z,5.90
2023-01-15T15:49:56.336Z,5.80
2023-01-15T15:52:45.277Z,5.80
2023-01-15T15:55:38.671Z,5.90
2023-01-15T15:58:31.094Z,5.80
2023-01-15T16:01:19.425Z,5.90
2023-01-15T16:04:07.134Z,5.90
2023-01-15T16:06:54.482Z,7.50
2023-01-15T16:09:45.060Z,5.90
2023-01-15T16:12:35.537Z,5.90
2023-01-15T16:15:26.975Z,6.00
2023-01-15T16:18:20.197Z,6.00
2023-01-15T16:21:08.936Z,6.00
2023-01-15T16:24:01.697Z,6.00
2023-01-15T16:26:51.376Z,6.00
2023-01-15T16:29:39.123Z,5.90
2023-01-15T16:32:29.689Z,5.80
2023-01-15T16:35:18.824Z,4.60
2023-01-15T16:38:08.985Z,5.50
2023-01-15T16:40:57.050Z,5.40
2023-01-15T16:43:57.124Z,5.40
2023-01-15T16:46:51.099Z,5.30
2023-01-15T16:49:40.003Z,5.20
2023-01-15T16:52:46.227Z,5.20
2023-01-15T16:55:38.040Z,5.30
2023-01-15T16:58:38.919Z,6.20
2023-01-15T17:01:31.597Z,4.90
2023-01-15T17:04:26.761Z,4.80
2023-01-15T17:07:20.950Z,4.80
2023-01-15T17:10:20.086Z,5.00
2023-01-15T17:13:08.724Z,6.90
2023-01-15T17:16:05.721Z,4.80
2023-01-15T17:18:53.535Z,5.00
2023-01-15T17:21:42.166Z,4.90
2023-01-15T17:24:31.632Z,5.10
2023-01-15T17:27:23.078Z,5.10
2023-01-15T17:30:18.302Z,5.10
2023-01-15T17:33:08.168Z,5.20
2023-01-15T17:35:58.528Z,5.80
2023-01-15T17:38:46.633Z,5.20
2023-01-15T17:41:35.437Z,5.20
2023-01-15T17:44:22.968Z,5.10
2023-01-15T17:47:12.621Z,5.20
2023-01-15T17:50:02.321Z,5.40
2023-01-15T17:52:50.296Z,5.30
2023-01-15T17:55:55.011Z,5.20
2023-01-15T17:59:02.685Z,5.10
2023-01-15T18:02:07.605Z,4.80
2023-01-15T18:05:13.666Z,5.00
2023-01-15T18:08:02.585Z,4.90
2023-01-15T18:11:00.086Z,5.20
2023-01-15T18:13:50.930Z,6.20
2023-01-15T18:16:39.227Z,5.80
2023-01-15T18:19:26.846Z,4.90
2023-01-15T18:22:18.819Z,5.00
2023-01-15T18:25:12.214Z,4.90
2023-01-15T18:28:02.984Z,7.40
2023-01-15T18:30:52.620Z,6.50
2023-01-15T18:33:40.882Z,5.50
2023-01-15T18:36:29.076Z,5.80
2023-01-15T18:39:20.880Z,7.40
2023-01-15T18:42:26.107Z,6.70
2023-01-15T18:45:31.439Z,5.80
2023-01-15T18:48:20.458Z,5.60
2023-01-15T18:51:11.526Z,7.20
2023-01-15T18:54:00.857Z,5.50
2023-01-15T18:56:48.520Z,5.50
2023-01-15T18:59:38.612Z,5.20
2023-01-15T19:02:26.741Z,5.40
2023-01-15T19:05:19.909Z,5.50
2023-01-15T19:08:10.244Z,7.40
2023-01-15T19:10:58.838Z,5.50
2023-01-15T19:14:07.550Z,5.30
2023-01-15T19:17:21.604Z,5.20
2023-01-15T19:20:24.789Z,5.10
2023-01-15T19:23:16.015Z,5.00
2023-01-15T19:26:07.373Z,5.00
2023-01-15T19:28:55.109Z,4.70
2023-01-15T19:31:43.920Z,4.90
2023-01-15T19:34:34.569Z,4.90
2023-01-15T19:37:25.045Z,4.70
2023-01-15T19:40:17.937Z,4.70
2023-01-15T19:43:27.191Z,4.70
2023-01-15T19:46:38.437Z,4.60
2023-01-15T19:49:43.733Z,4.90
2023-01-15T19:52:38.206Z,4.70
2023-01-15T19:55:29.842Z,4.60
2023-01-15T19:58:18.215Z,7.40
2023-01-15T20:01:06.166Z,4.70
2023-01-15T20:03:56.890Z,4.90
2023-01-15T20:06:45.431Z,5.20
2023-01-15T20:09:38.107Z,5.20
2023-01-15T20:12:43.431Z,5.40
2023-01-15T20:15:38.106Z,5.00
2023-01-15T20:18:27.998Z,5.90
2023-01-15T20:21:16.455Z,5.40
2023-01-15T20:24:04.479Z,5.00
2023-01-15T20:26:53.801Z,4.90
2023-01-15T20:29:41.998Z,5.10
2023-01-15T20:32:29.890Z,5.20
2023-01-15T20:35:21.081Z,6.40
2023-01-15T20:38:17.074Z,5.50
2023-01-15T20:41:23.279Z,5.50
2023-01-15T20:44:32.695Z,5.70
2023-01-15T20:47:34.156Z,5.50
2023-01-15T20:50:22.386Z,2.50
2023-01-15T20:53:10.676Z,7.30
2023-01-15T20:55:58.872Z,4.90
2023-01-15T20:58:48.280Z,4.10
2023-01-15T21:01:41.446Z,4.80
2023-01-15T21:04:31.001Z,7.10
2023-01-15T21:07:21.486Z,4.60
2023-01-15T21:10:12.072Z,5.90
2023-01-15T21:13:00.752Z,4.50
2023-01-15T21:15:56.149Z,4.40
2023-01-15T21:18:46.704Z,4.50
2023-01-15T21:21:34.595Z,4.50
2023-01-15T21:24:25.420Z,4.10
2023-01-15T21:27:13.469Z,4.40
2023-01-15T21:30:03.044Z,4.70
2023-01-15T21:32:53.228Z,4.50
2023-01-15T21:35:42.563Z,4.60
2023-01-15T21:38:31.475Z,4.40
2023-01-15T21:41:19.857Z,4.60
2023-01-15T21:44:25.029Z,4.70
2023-01-15T21:47:14.072Z,4.80
2023-01-15T21:50:03.187Z,4.90
2023-01-15T21:52:55.004Z,4.90
2023-01-15T21:55:49.645Z,5.20
2023-01-15T21:58:37.893Z,5.50
2023-01-15T22:01:26.272Z,5.40
2023-01-15T22:04:14.932Z,2.40
2023-01-15T22:07:02.661Z,5.10
2023-01-15T22:09:55.253Z,5.20
2023-01-15T22:12:43.332Z,5.20
2023-01-15T22:15:31.131Z,5.10
2023-01-15T22:18:19.452Z,5.20
2023-01-15T22:21:08.690Z,5.00
2023-01-15T22:24:01.123Z,5.10
2023-01-15T22:26:54.658Z,5.30
2023-01-15T22:29:42.339Z,4.90
2023-01-15T22:32:37.766Z,5.00
2023-01-15T22:35:26.991Z,4.70
2023-01-15T22:38:18.928Z,4.80
2023-01-15T22:41:06.787Z,4.90
2023-01-15T22:43:56.004Z,4.90
2023-01-15T22:46:45.246Z,4.60
2023-01-15T22:49:33.221Z,5.30
2023-01-15T22:52:27.640Z,4.80
2023-01-15T22:55:14.941Z,5.20
2023-01-15T22:58:03.414Z,4.80
2023-01-15T23:00:57.326Z,5.00
2023-01-15T23:03:45.474Z,4.80
2023-01-15T23:06:44.099Z,4.70
2023-01-15T23:09:32.790Z,4.90
2023-01-15T23:12:23.928Z,4.40
2023-01-15T23:15:16.613Z,4.30
2023-01-15T23:18:06.125Z,4.60
2023-01-15T23:20:54.977Z,4.60
2023-01-15T23:23:42.954Z,4.70
2023-01-15T23:26:34.745Z,4.60
2023-01-15T23:29:24.053Z,4.60
2023-01-15T23:32:12.284Z,4.30
2023-01-15T23:35:01.805Z,2.40
2023-01-15T23:37:50.578Z,4.30
2023-01-15T23:40:40.546Z,4.30
2023-01-15T23:43:46.002Z,4.30
2023-01-15T23:46:37.439Z,6.20
2023-01-15T23:49:27.933Z,4.30
2023-01-15T23:52:18.510Z,4.30
2023-01-15T23:55:08.964Z,4.30
2023-01-15T23:57:59.237Z,4.10
